WetterOnline ( https://www.wetteronline.de )

Wetter aktuell Greifswalder Bodden

Aktuelles Wetter: Greifswalder Oie (12m)

6-stündlich | Neueste Meldungen
Ortszeit Temperatur Wetter
Do, 05.12. 13:00 5.2° C wolkenlos
Do, 05.12. 7:00 3.6° C fast wolkenlos
Do, 05.12. 1:00 5.1° C bedeckt
Mi, 04.12. 19:00 5.3° C bedeckt
Mi, 04.12. 13:00 5.7° C bedeckt
Mi, 04.12. 7:00 5.9° C bedeckt
Mi, 04.12. 1:00 5.9° C bedeckt
Di, 03.12. 19:00 5.1° C bedeckt
Ortszeit Temperatur Wetter
Do, 05.12. 15:00 5.5° C -
Do, 05.12. 14:50 5.5° C wolkenlos
Do, 05.12. 14:40 5.6° C wolkenlos
Do, 05.12. 14:30 5.4° C fast wolkenlos
Do, 05.12. 14:20 5.4° C fast wolkenlos
Do, 05.12. 14:10 5.2° C fast wolkenlos
Do, 05.12. 14:00 5.3° C fast wolkenlos
Do, 05.12. 13:30 5.2° C wolkenlos
Do, 05.12. 13:00 5.2° C wolkenlos
Do, 05.12. 12:30 5.0° C leicht bewölkt
Do, 05.12. 12:00 4.5° C wolkig
Do, 05.12. 11:30 4.2° C wolkig
Ortszeit Relative Feuchte Sichtweite
Do, 05.12. 13:00 82% 13 km
Do, 05.12. 7:00 92% 6 km
Do, 05.12. 1:00 84% 12 km
Mi, 04.12. 19:00 84% 10 km
Mi, 04.12. 13:00 91% 6 km
Mi, 04.12. 7:00 94% 5.0 km
Mi, 04.12. 1:00 95% 5.0 km
Di, 03.12. 19:00 96% 10 km
Ortszeit Relative Feuchte Sichtweite
Do, 05.12. 15:00 79% 17 km
Do, 05.12. 14:50 79% -
Do, 05.12. 14:40 80% -
Do, 05.12. 14:30 81% 15 km
Do, 05.12. 14:20 81% -
Do, 05.12. 14:10 82% -
Do, 05.12. 14:00 80% 13 km
Do, 05.12. 13:30 83% 14 km
Do, 05.12. 13:00 82% 13 km
Do, 05.12. 12:30 84% 11 km
Do, 05.12. 12:00 84% 11 km
Do, 05.12. 11:30 87% 10 km
Ortszeit Niederschlagsmenge Niederschlagsart
Do, 05.12. 13:00 0.0 l/m2 in 6 Std. -
Do, 05.12. 7:00 0.0 l/m2 in 12 Std. -
Do, 05.12. 1:00 0.0 l/m2 in 6 Std. -
Mi, 04.12. 19:00 0.0 l/m2 in 12 Std. -
Mi, 04.12. 13:00 0.0 l/m2 in 6 Std. -
Mi, 04.12. 7:00 0.0 l/m2 in 12 Std. -
Mi, 04.12. 1:00 0.0 l/m2 in 6 Std. -
Di, 03.12. 19:00 0.3 l/m2 in 12 Std. Schnee, Regen
Ortszeit Niederschlagsmenge Niederschlagsart
Do, 05.12. 15:00 0.0 l/m2 in 1 Std. -
Do, 05.12. 14:50 keine Meldung -
Do, 05.12. 14:40 keine Meldung -
Do, 05.12. 14:30 0.0 l/m2 in 1 Std. -
Do, 05.12. 14:20 keine Meldung -
Do, 05.12. 14:10 keine Meldung -
Do, 05.12. 14:00 0.0 l/m2 in 1 Std. -
Do, 05.12. 13:30 0.0 l/m2 in 1 Std. -
Do, 05.12. 13:00 0.0 l/m2 in 1 Std. -
Do, 05.12. 12:30 0.0 l/m2 in 1 Std. -
Do, 05.12. 12:00 0.0 l/m2 in 1 Std. -
Do, 05.12. 11:30 0.0 l/m2 in 1 Std. -
Ortszeit Stärke Spitze Richtung
km/h Bft. km/h Grad Sektor
Do, 05.12. 13:00 24 4 37 230° SW
Do, 05.12. 7:00 20 4 43 210° SW
Do, 05.12. 1:00 32 5 43 250° W
Mi, 04.12. 19:00 28 4 35 230° SW
Mi, 04.12. 13:00 24 4 46 240° SW
Mi, 04.12. 7:00 33 5 52 250° W
Mi, 04.12. 1:00 41 6 56 250° W
Di, 03.12. 19:00 37 5 46 230° SW
Ortszeit Stärke Spitze Richtung
km/h Bft. km/h Grad Sektor
Do, 05.12. 15:00 26 4 33 220° SW
Do, 05.12. 14:50 - - - - -
Do, 05.12. 14:40 24 4 - 230° SW
Do, 05.12. 14:30 25 4 32 240° SW
Do, 05.12. 14:20 25 4 - 240° SW
Do, 05.12. 14:10 25 4 - 240° SW
Do, 05.12. 14:00 26 4 33 250° W
Do, 05.12. 13:30 24 4 31 240° SW
Do, 05.12. 13:00 24 4 33 230° SW
Do, 05.12. 12:30 26 4 33 210° SW
Do, 05.12. 12:00 29 5 36 220° SW
Do, 05.12. 11:30 28 4 37 220° SW
Ortszeit Untergrenze Bedeckung Gattung
total tief tief mittel hoch
Do, 05.12. 13:00 - 0/8 0/8 - - -
Do, 05.12. 7:00 1290 m 1/8 1/8 - - -
Do, 05.12. 1:00 420 m 8/8 8/8 - - -
Mi, 04.12. 19:00 570 m 8/8 8/8 - - -
Mi, 04.12. 13:00 690 m 8/8 8/8 - - -
Mi, 04.12. 7:00 330 m 8/8 8/8 - - -
Mi, 04.12. 1:00 180 m 8/8 8/8 - - -
Di, 03.12. 19:00 180 m 8/8 8/8 - - -
Ortszeit Bedeckungsgrad in Achtel und Wolkenuntergrenze
Do, 05.12. 15:00 -
Do, 05.12. 14:50 keine Wolken
Do, 05.12. 14:40 keine Wolken
Do, 05.12. 14:30 1(9000m)
Do, 05.12. 14:20 1(9000m)
Do, 05.12. 14:10 1(9000m)
Do, 05.12. 14:00 2(9000m)
Do, 05.12. 13:30 keine Wolken
Do, 05.12. 13:00 keine Wolken
Do, 05.12. 12:30 2(1500m)
Do, 05.12. 12:00 5(1500m)
Do, 05.12. 11:30 6(1500m)
Ortszeit Luftdruck NN (hPa) Tendenz (hPa in 3 Std.)
Do, 05.12. 13:00 1016 - 1,7
Do, 05.12. 7:00 1018 - 0,8
Do, 05.12. 1:00 1020 - 0,9
Mi, 04.12. 19:00 1021 + 0,5
Mi, 04.12. 13:00 1020 - 0,1
Mi, 04.12. 7:00 1019 + 0,2
Mi, 04.12. 1:00 1020 - 0,1
Di, 03.12. 19:00 1021 - 1,4
Ortszeit Luftdruck NN (hPa) Tendenz (hPa in 3 Std.)
Do, 05.12. 15:00 1015 - 1,2
Do, 05.12. 14:50 1015 keine Meldung
Do, 05.12. 14:40 1015 keine Meldung
Do, 05.12. 14:30 1016 - 1,1
Do, 05.12. 14:20 1016 keine Meldung
Do, 05.12. 14:10 1016 keine Meldung
Do, 05.12. 14:00 1016 - 1,6
Do, 05.12. 13:30 1016 - 1,9
Do, 05.12. 13:00 1016 - 1,7
Do, 05.12. 12:30 1016 - 1,7
Do, 05.12. 12:00 1016 - 1,8
Do, 05.12. 11:30 1017 - 1,4
Ortszeit Schneehöhe (cm)
Do, 05.12. 13:00 0
Do, 05.12. 7:00 0
Do, 05.12. 1:00 0
Mi, 04.12. 19:00 0
Mi, 04.12. 13:00 0
Mi, 04.12. 7:00 0
Mi, 04.12. 1:00 0
Di, 03.12. 19:00 0
Ortszeit Schneehöhe (cm)
Do, 05.12. 15:00 0
Do, 05.12. 14:50 0
Do, 05.12. 14:40 0
Do, 05.12. 14:30 0
Do, 05.12. 14:20 0
Do, 05.12. 14:10 0
Do, 05.12. 14:00 0
Do, 05.12. 13:30 0
Do, 05.12. 13:00 0
Do, 05.12. 12:30 0
Do, 05.12. 12:00 0
Do, 05.12. 11:30 0
Link zu dieser Seite / Seite empfehlen

Das Wetter in ...